createdAt,value
2023-05-09T00:01:45.423Z,4.17
2023-05-09T00:04:12.741Z,4.40
2023-05-09T00:06:39.820Z,4.13
2023-05-09T00:09:07.144Z,4.20
2023-05-09T00:11:34.511Z,4.27
2023-05-09T00:14:02.495Z,4.10
2023-05-09T00:16:33.116Z,3.88
2023-05-09T00:19:00.327Z,4.25
2023-05-09T00:21:28.313Z,4.00
2023-05-09T00:23:55.670Z,3.72
2023-05-09T00:26:23.166Z,4.35
2023-05-09T00:28:50.770Z,3.70
2023-05-09T00:31:17.836Z,3.80
2023-05-09T00:33:45.003Z,3.92
2023-05-09T00:36:12.124Z,3.80
2023-05-09T00:38:39.085Z,4.25
2023-05-09T00:41:09.037Z,3.80
2023-05-09T00:43:36.201Z,3.88
2023-05-09T00:46:03.555Z,4.38
2023-05-09T00:48:30.739Z,4.27
2023-05-09T00:51:01.557Z,4.30
2023-05-09T00:53:28.583Z,3.80
2023-05-09T00:55:57.769Z,3.90
2023-05-09T00:58:26.173Z,3.97
2023-05-09T01:00:53.349Z,4.20
2023-05-09T01:03:21.614Z,3.67
2023-05-09T01:08:41.186Z,3.92
2023-05-09T01:11:15.433Z,3.50
2023-05-09T01:14:07.397Z,3.90
2023-05-09T01:16:42.782Z,3.78
2023-05-09T01:19:55.025Z,3.92
2023-05-09T01:22:29.560Z,3.67
2023-05-09T01:25:19.617Z,3.65
2023-05-09T01:27:57.669Z,3.55
2023-05-09T01:30:27.441Z,3.75
2023-05-09T01:33:00.977Z,3.25
2023-05-09T01:35:31.709Z,3.58
2023-05-09T01:37:59.749Z,3.47
2023-05-09T01:40:32.056Z,3.47
2023-05-09T01:43:07.906Z,3.20
2023-05-09T01:45:39.102Z,3.83
2023-05-09T01:48:08.592Z,3.45
2023-05-09T01:50:37.704Z,3.67
2023-05-09T01:53:06.577Z,3.50
2023-05-09T01:55:36.284Z,3.50
2023-05-09T01:58:05.810Z,3.50
2023-05-09T02:00:36.510Z,3.13
2023-05-09T02:05:32.531Z,3.33
2023-05-09T02:08:00.007Z,3.15
2023-05-09T02:10:31.434Z,3.20
2023-05-09T02:12:58.512Z,3.22
2023-05-09T02:15:26.292Z,3.30
2023-05-09T02:17:53.394Z,3.03
2023-05-09T02:20:20.500Z,2.97
2023-05-09T02:22:48.358Z,3.25
2023-05-09T02:25:15.984Z,3.78
2023-05-09T02:27:46.030Z,3.17
2023-05-09T02:30:20.598Z,3.50
2023-05-09T02:32:53.772Z,3.30
2023-05-09T02:35:23.045Z,3.22
2023-05-09T02:37:50.809Z,3.30
2023-05-09T02:40:20.497Z,3.15
2023-05-09T02:42:47.835Z,3.30
2023-05-09T02:45:15.164Z,3.22
2023-05-09T02:47:42.636Z,2.92
2023-05-09T02:50:09.858Z,3.07
2023-05-09T02:52:38.592Z,3.47
2023-05-09T02:55:07.425Z,2.93
2023-05-09T02:57:38.964Z,3.20
2023-05-09T03:00:09.965Z,3.20
2023-05-09T03:02:38.565Z,3.10
2023-05-09T03:05:09.344Z,3.03
2023-05-09T03:07:37.053Z,3.10
2023-05-09T03:10:06.513Z,3.05
2023-05-09T03:15:38.143Z,3.20
2023-05-09T03:18:06.199Z,2.83
2023-05-09T03:20:33.226Z,3.45
2023-05-09T03:23:00.144Z,3.17
2023-05-09T03:25:27.131Z,3.00
2023-05-09T03:27:53.895Z,3.22
2023-05-09T03:30:21.279Z,3.40
2023-05-09T03:32:49.805Z,3.17
2023-05-09T03:35:16.956Z,3.28
2023-05-09T03:37:44.160Z,3.65
2023-05-09T03:40:11.730Z,3.20
2023-05-09T03:42:46.270Z,2.95
2023-05-09T03:45:13.353Z,3.05
2023-05-09T03:50:09.191Z,3.10
2023-05-09T03:52:37.470Z,3.20
2023-05-09T03:55:05.904Z,3.10
2023-05-09T03:57:35.934Z,3.25
2023-05-09T04:00:06.266Z,3.28
2023-05-09T04:02:41.313Z,3.38
2023-05-09T04:05:12.688Z,3.17
2023-05-09T04:07:40.166Z,3.10
2023-05-09T04:10:08.593Z,3.40
2023-05-09T04:15:03.460Z,3.03
2023-05-09T04:17:31.350Z,3.08
2023-05-09T04:19:58.181Z,3.38
2023-05-09T04:22:25.113Z,3.38
2023-05-09T04:24:52.284Z,2.95
2023-05-09T04:27:19.119Z,3.38
2023-05-09T04:29:47.118Z,3.58
2023-05-09T04:32:15.657Z,3.60
2023-05-09T04:34:43.182Z,3.15
2023-05-09T04:37:17.226Z,3.40
2023-05-09T04:39:45.235Z,3.50
2023-05-09T04:42:19.236Z,2.70
2023-05-09T04:44:46.442Z,3.15
2023-05-09T04:47:13.300Z,3.13
2023-05-09T04:49:40.710Z,3.33
2023-05-09T04:52:08.424Z,3.15
2023-05-09T04:54:35.261Z,3.22
2023-05-09T04:57:17.478Z,3.22
2023-05-09T04:59:49.651Z,3.55
2023-05-09T05:02:16.849Z,2.95
2023-05-09T05:04:43.961Z,2.70
2023-05-09T05:07:11.011Z,3.08
2023-05-09T05:09:38.560Z,3.30
2023-05-09T05:12:09.327Z,3.30
2023-05-09T05:14:39.633Z,3.45
2023-05-09T05:17:08.963Z,3.35
2023-05-09T05:19:36.303Z,3.00
2023-05-09T05:22:05.322Z,3.33
2023-05-09T05:24:33.489Z,3.25
2023-05-09T05:27:01.397Z,3.05
2023-05-09T05:29:28.284Z,3.05
2023-05-09T05:31:55.434Z,3.33
2023-05-09T05:34:22.908Z,3.13
2023-05-09T05:36:50.712Z,2.80
2023-05-09T05:39:17.816Z,3.40
2023-05-09T05:41:44.715Z,3.20
2023-05-09T05:44:11.886Z,2.95
2023-05-09T05:46:39.065Z,2.95
2023-05-09T05:49:06.221Z,3.17
2023-05-09T05:51:34.342Z,3.08
2023-05-09T05:54:02.893Z,3.20
2023-05-09T05:56:30.677Z,2.67
2023-05-09T05:58:58.135Z,2.80
2023-05-09T06:01:25.063Z,2.75
2023-05-09T06:03:54.743Z,3.10
2023-05-09T06:06:24.418Z,2.85
2023-05-09T06:08:51.255Z,2.67
2023-05-09T06:11:19.029Z,3.28
2023-05-09T06:13:45.888Z,2.70
2023-05-09T06:16:19.328Z,2.70
2023-05-09T06:18:49.905Z,2.75
2023-05-09T06:21:17.614Z,3.17
2023-05-09T06:23:57.851Z,2.72
2023-05-09T06:26:32.480Z,2.33
2023-05-09T06:28:59.310Z,2.90
2023-05-09T06:31:26.219Z,2.55
2023-05-09T06:33:53.317Z,2.70
2023-05-09T06:36:20.214Z,2.88
2023-05-09T06:38:47.299Z,2.60
2023-05-09T06:41:14.215Z,2.72
2023-05-09T06:43:41.104Z,2.45
2023-05-09T06:46:07.973Z,2.85
2023-05-09T06:48:34.924Z,2.75
2023-05-09T06:51:01.988Z,2.40
2023-05-09T06:53:28.790Z,2.58
2023-05-09T06:55:55.665Z,2.47
2023-05-09T06:58:23.114Z,2.50
2023-05-09T07:00:50.797Z,2.72
2023-05-09T07:03:17.702Z,2.47
2023-05-09T07:05:44.646Z,2.50
2023-05-09T07:08:11.576Z,2.53
2023-05-09T07:10:38.806Z,2.60
2023-05-09T07:13:05.944Z,2.60
2023-05-09T07:15:40.354Z,2.78
2023-05-09T07:18:08.708Z,2.85
2023-05-09T07:20:35.681Z,2.67
2023-05-09T07:23:04.276Z,2.45
2023-05-09T07:25:31.369Z,2.78
2023-05-09T07:27:58.426Z,2.75
2023-05-09T07:30:25.480Z,2.60
2023-05-09T07:32:52.615Z,2.67
2023-05-09T07:35:20.930Z,2.57
2023-05-09T07:40:15.418Z,2.83
2023-05-09T07:42:49.399Z,2.65
2023-05-09T07:45:16.811Z,2.30
2023-05-09T07:47:44.048Z,2.10
2023-05-09T07:50:11.540Z,3.00
2023-05-09T07:52:38.431Z,2.95
2023-05-09T07:55:05.674Z,2.70
2023-05-09T07:57:32.505Z,2.67
2023-05-09T07:59:59.266Z,2.95
2023-05-09T08:02:26.226Z,2.63
2023-05-09T08:04:53.105Z,2.90
2023-05-09T08:07:19.895Z,2.70
2023-05-09T08:09:46.667Z,2.85
2023-05-09T08:12:13.573Z,2.85
2023-05-09T08:14:40.856Z,2.47
2023-05-09T08:17:07.695Z,2.60
2023-05-09T08:19:34.514Z,2.40
2023-05-09T08:22:01.455Z,2.50
2023-05-09T08:24:28.480Z,2.50
2023-05-09T08:26:55.347Z,2.20
2023-05-09T08:29:22.194Z,2.60
2023-05-09T08:31:49.105Z,2.50
2023-05-09T08:34:16.024Z,2.40
2023-05-09T08:36:45.521Z,2.45
2023-05-09T08:39:12.570Z,2.40
2023-05-09T08:41:39.802Z,2.60
2023-05-09T08:44:07.169Z,2.25
2023-05-09T08:46:42.915Z,2.67
2023-05-09T08:49:10.591Z,2.15
2023-05-09T08:51:38.371Z,6.18
2023-05-09T08:54:05.861Z,2.55
2023-05-09T08:56:34.762Z,2.40
2023-05-09T08:59:01.690Z,1.98
2023-05-09T09:01:29.364Z,2.38
2023-05-09T09:03:56.848Z,2.30
2023-05-09T09:06:25.684Z,2.20
2023-05-09T09:08:56.144Z,2.10
2023-05-09T09:11:23.621Z,2.10
2023-05-09T09:13:53.982Z,2.22
2023-05-09T09:16:22.812Z,2.28
2023-05-09T09:18:52.767Z,1.92
2023-05-09T09:21:20.856Z,1.92
2023-05-09T09:23:48.762Z,1.98
2023-05-09T09:26:16.758Z,2.50
2023-05-09T09:28:43.694Z,2.90
2023-05-09T09:31:37.807Z,1.63
2023-05-09T09:34:04.757Z,1.80
2023-05-09T09:36:34.008Z,1.77
2023-05-09T09:39:07.195Z,1.60
2023-05-09T09:41:35.711Z,1.73
2023-05-09T09:44:18.473Z,1.85
2023-05-09T09:46:46.570Z,2.10
2023-05-09T09:51:41.200Z,2.30
2023-05-09T09:54:09.213Z,2.10
2023-05-09T09:56:47.200Z,2.13
2023-05-09T10:02:05.077Z,2.00
2023-05-09T10:04:36.637Z,1.60
2023-05-09T10:07:13.565Z,2.20
2023-05-09T10:09:41.352Z,2.33
2023-05-09T10:12:09.159Z,2.28
2023-05-09T10:14:38.240Z,2.80
2023-05-09T10:17:05.985Z,2.55
2023-05-09T10:19:33.500Z,2.10
2023-05-09T10:22:08.137Z,2.03
2023-05-09T10:24:47.419Z,2.13
2023-05-09T10:27:17.981Z,1.90
2023-05-09T10:29:46.868Z,2.47
2023-05-09T10:32:23.475Z,2.03
2023-05-09T10:34:56.931Z,2.25
2023-05-09T10:37:25.758Z,2.03
2023-05-09T10:39:54.641Z,2.03
2023-05-09T10:42:23.863Z,1.98
2023-05-09T10:44:53.018Z,2.38
2023-05-09T10:47:21.828Z,2.22
2023-05-09T10:49:49.804Z,1.90
2023-05-09T10:52:16.886Z,1.92
2023-05-09T10:54:43.850Z,1.65
2023-05-09T10:57:11.147Z,1.80
2023-05-09T10:59:41.321Z,1.90
2023-05-09T11:02:19.319Z,2.00
2023-05-09T11:04:46.891Z,1.92
2023-05-09T11:07:30.038Z,1.98
2023-05-09T11:10:17.667Z,2.30
2023-05-09T11:12:58.961Z,2.00
2023-05-09T11:15:27.469Z,1.80
2023-05-09T11:18:08.526Z,2.15
2023-05-09T11:20:36.590Z,1.88
2023-05-09T11:23:08.501Z,1.90
2023-05-09T11:25:36.136Z,2.10
2023-05-09T11:28:03.365Z,2.20
2023-05-09T11:30:41.082Z,1.90
2023-05-09T11:33:22.927Z,2.20
2023-05-09T11:36:19.949Z,1.90
2023-05-09T11:38:47.956Z,2.28
2023-05-09T11:41:15.572Z,2.13
2023-05-09T11:43:44.420Z,1.77
2023-05-09T11:46:11.644Z,2.03
2023-05-09T11:48:39.851Z,1.90
2023-05-09T11:53:34.502Z,2.20
2023-05-09T11:56:05.170Z,1.70
2023-05-09T11:58:32.270Z,1.90
2023-05-09T12:01:00.404Z,1.60
2023-05-09T12:03:27.494Z,2.03
2023-05-09T12:05:55.097Z,2.10
2023-05-09T12:08:24.330Z,1.98
2023-05-09T12:10:51.466Z,2.00
2023-05-09T12:13:19.196Z,1.63
2023-05-09T12:15:46.310Z,1.70
2023-05-09T12:18:13.227Z,1.50
2023-05-09T12:20:48.441Z,1.83
2023-05-09T12:23:15.642Z,1.70
2023-05-09T12:25:48.761Z,1.70
2023-05-09T12:28:16.607Z,1.65
2023-05-09T12:30:45.050Z,1.85
2023-05-09T12:33:12.494Z,1.80
2023-05-09T12:35:40.195Z,1.58
2023-05-09T12:38:07.570Z,1.40
2023-05-09T12:40:34.454Z,1.60
2023-05-09T12:43:02.905Z,1.50
2023-05-09T12:45:33.618Z,1.65
2023-05-09T12:48:02.407Z,1.70
2023-05-09T12:50:36.578Z,1.70
2023-05-09T12:53:06.791Z,1.77
2023-05-09T12:55:40.709Z,1.75
2023-05-09T12:58:07.792Z,1.67
2023-05-09T13:00:45.174Z,1.60
2023-05-09T13:03:30.505Z,1.75
2023-05-09T13:06:01.707Z,2.47
2023-05-09T13:08:29.549Z,1.70
2023-05-09T13:11:08.052Z,1.50
2023-05-09T13:13:42.449Z,1.60
2023-05-09T13:18:38.412Z,1.48
2023-05-09T13:21:05.298Z,1.70
2023-05-09T13:23:32.126Z,1.85
2023-05-09T13:25:59.105Z,1.83
2023-05-09T13:28:25.943Z,1.75
2023-05-09T13:30:52.904Z,1.60
2023-05-09T13:33:25.814Z,2.33
2023-05-09T13:35:53.667Z,2.00
2023-05-09T13:40:47.480Z,1.80
2023-05-09T13:43:14.332Z,1.80
2023-05-09T13:45:41.214Z,1.85
2023-05-09T13:48:08.027Z,1.55
2023-05-09T13:50:35.025Z,1.58
2023-05-09T13:53:01.969Z,1.83
2023-05-09T13:55:29.569Z,1.73
2023-05-09T13:57:57.021Z,1.63
2023-05-09T14:00:26.760Z,1.88
2023-05-09T14:02:54.282Z,1.90
2023-05-09T14:05:21.318Z,1.60
2023-05-09T14:07:48.321Z,2.05
2023-05-09T14:10:15.961Z,1.75
2023-05-09T14:12:47.182Z,2.00
2023-05-09T14:15:14.341Z,1.90
2023-05-09T14:17:41.647Z,2.03
2023-05-09T14:20:09.106Z,2.13
2023-05-09T14:22:36.064Z,1.80
2023-05-09T14:25:02.914Z,2.05
2023-05-09T14:27:30.011Z,2.05
2023-05-09T14:32:23.755Z,1.88
2023-05-09T14:34:50.780Z,1.73
2023-05-09T14:37:17.784Z,1.83
2023-05-09T14:39:49.365Z,1.60
2023-05-09T14:42:16.723Z,1.73
2023-05-09T14:44:44.666Z,1.67
2023-05-09T14:47:12.145Z,1.60
2023-05-09T14:49:39.958Z,1.67
2023-05-09T14:52:07.057Z,1.58
2023-05-09T14:57:04.412Z,1.60
2023-05-09T14:59:31.538Z,1.70
2023-05-09T15:06:56.078Z,2.97
2023-05-09T15:09:23.084Z,1.88
2023-05-09T15:14:17.586Z,1.65
2023-05-09T15:16:44.656Z,1.73
2023-05-09T15:24:05.807Z,1.63
2023-05-09T15:28:59.633Z,1.90
2023-05-09T15:31:26.643Z,2.03
2023-05-09T15:38:49.749Z,1.88
2023-05-09T15:41:17.195Z,1.90
2023-05-09T15:43:44.198Z,1.90
2023-05-09T15:46:11.218Z,1.92
2023-05-09T15:48:38.159Z,2.13
2023-05-09T15:51:05.279Z,2.00
2023-05-09T15:53:32.175Z,2.20
2023-05-09T15:55:59.474Z,1.88
2023-05-09T16:00:53.463Z,1.73
2023-05-09T16:05:47.315Z,1.65
2023-05-09T16:08:14.422Z,1.77
2023-05-09T16:10:41.595Z,1.80
2023-05-09T16:13:09.136Z,2.05
2023-05-09T16:15:36.187Z,2.20
2023-05-09T16:18:03.096Z,2.00
2023-05-09T16:20:30.040Z,1.70
2023-05-09T16:22:56.871Z,1.88
2023-05-09T16:25:24.011Z,1.90
2023-05-09T16:27:51.063Z,1.98
2023-05-09T16:30:18.244Z,2.05
2023-05-09T16:32:45.584Z,2.08
2023-05-09T16:35:12.857Z,2.08
2023-05-09T16:37:39.763Z,2.13
2023-05-09T16:40:06.993Z,2.60
2023-05-09T16:42:33.999Z,2.70
2023-05-09T16:45:01.109Z,2.90
2023-05-09T16:47:27.937Z,2.60
2023-05-09T16:49:54.805Z,2.83
2023-05-09T16:52:23.250Z,2.57
2023-05-09T16:54:50.584Z,2.55
2023-05-09T16:57:17.609Z,2.20
2023-05-09T16:59:44.403Z,2.30
2023-05-09T17:02:11.407Z,2.17
2023-05-09T17:04:38.327Z,2.28
2023-05-09T17:07:05.204Z,2.15
2023-05-09T17:09:32.463Z,2.30
2023-05-09T17:12:00.803Z,2.50
2023-05-09T17:14:27.673Z,12.25
2023-05-09T17:16:54.977Z,2.20
2023-05-09T17:19:23.489Z,2.08
2023-05-09T17:21:50.639Z,2.25
2023-05-09T17:24:17.944Z,2.50
2023-05-09T17:26:44.854Z,2.20
2023-05-09T17:29:11.769Z,2.33
2023-05-09T17:31:38.568Z,2.35
2023-05-09T17:34:05.624Z,2.53
2023-05-09T17:36:33.777Z,2.30
2023-05-09T17:39:00.919Z,2.53
2023-05-09T17:41:27.954Z,2.50
2023-05-09T17:43:57.347Z,2.67
2023-05-09T17:46:25.020Z,2.42
2023-05-09T17:48:52.003Z,2.70
2023-05-09T17:51:19.179Z,2.97
2023-05-09T17:53:46.813Z,2.60
2023-05-09T17:56:13.867Z,2.88
2023-05-09T17:58:41.042Z,2.60
2023-05-09T18:01:08.309Z,2.85
2023-05-09T18:03:35.430Z,2.97
2023-05-09T18:06:02.744Z,2.70
2023-05-09T18:08:29.838Z,2.60
2023-05-09T18:10:57.695Z,2.42
2023-05-09T18:13:25.080Z,2.80
2023-05-09T18:15:54.668Z,2.78
2023-05-09T18:18:22.280Z,2.90
2023-05-09T18:20:49.409Z,2.80
2023-05-09T18:23:16.664Z,2.88
2023-05-09T18:25:43.505Z,5.60
2023-05-09T18:28:10.850Z,4.18
2023-05-09T18:30:38.918Z,2.92
2023-05-09T18:38:11.898Z,2.90
2023-05-09T18:40:38.713Z,3.10
2023-05-09T18:43:06.353Z,2.90
2023-05-09T18:45:34.308Z,2.85
2023-05-09T18:48:05.047Z,3.00
2023-05-09T18:50:32.471Z,2.55
2023-05-09T18:52:59.655Z,2.90
2023-05-09T18:55:26.766Z,2.83
2023-05-09T18:57:53.641Z,2.80
2023-05-09T19:00:20.515Z,2.88
2023-05-09T19:02:47.396Z,3.03
2023-05-09T19:05:14.352Z,2.60
2023-05-09T19:07:41.726Z,2.70
2023-05-09T19:10:09.239Z,2.90
2023-05-09T19:12:36.209Z,2.60
2023-05-09T19:15:03.729Z,2.85
2023-05-09T19:17:30.621Z,2.78
2023-05-09T19:19:58.268Z,2.67
2023-05-09T19:22:25.050Z,2.83
2023-05-09T19:24:52.053Z,2.97
2023-05-09T19:27:19.089Z,2.88
2023-05-09T19:29:48.048Z,2.70
2023-05-09T19:32:17.903Z,3.20
2023-05-09T19:34:44.712Z,2.75
2023-05-09T19:37:11.497Z,2.60
2023-05-09T19:39:38.428Z,3.20
2023-05-09T19:42:05.257Z,2.55
2023-05-09T19:44:32.227Z,2.78
2023-05-09T19:47:00.903Z,2.63
2023-05-09T19:49:27.940Z,2.60
2023-05-09T19:51:54.742Z,2.53
2023-05-09T19:54:25.844Z,2.60
2023-05-09T19:56:53.008Z,2.60
2023-05-09T19:59:20.049Z,2.65
2023-05-09T20:01:47.201Z,2.88
2023-05-09T20:04:14.117Z,2.83
2023-05-09T20:06:41.357Z,2.75
2023-05-09T20:09:08.470Z,2.58
2023-05-09T20:11:35.314Z,2.85
2023-05-09T20:14:02.350Z,2.75
2023-05-09T20:16:29.248Z,2.80
2023-05-09T20:18:56.276Z,3.55
2023-05-09T20:21:23.288Z,2.75
2023-05-09T20:23:50.271Z,2.58
2023-05-09T20:26:17.150Z,2.50
2023-05-09T20:28:44.145Z,2.78
2023-05-09T20:31:11.017Z,4.32
2023-05-09T20:33:38.025Z,3.28
2023-05-09T20:36:06.451Z,2.53
2023-05-09T20:38:33.344Z,2.60
2023-05-09T20:41:00.169Z,2.67
2023-05-09T20:43:26.979Z,2.47
2023-05-09T20:45:54.323Z,2.85
2023-05-09T20:48:23.454Z,2.60
2023-05-09T20:50:50.417Z,2.80
2023-05-09T20:53:17.413Z,2.40
2023-05-09T20:55:44.376Z,2.80
2023-05-09T20:58:14.667Z,2.92
2023-05-09T21:00:41.546Z,2.75
2023-05-09T21:03:10.051Z,2.90
2023-05-09T21:05:37.071Z,2.70
2023-05-09T21:08:04.451Z,2.70
2023-05-09T21:10:34.406Z,3.22
2023-05-09T21:13:01.368Z,2.88
2023-05-09T21:15:28.254Z,3.10
2023-05-09T21:17:55.091Z,2.97
2023-05-09T21:20:22.056Z,2.80
2023-05-09T21:22:49.568Z,2.88
2023-05-09T21:25:17.473Z,3.03
2023-05-09T21:27:44.617Z,3.13
2023-05-09T21:30:11.841Z,3.30
2023-05-09T21:32:38.652Z,3.20
2023-05-09T21:35:10.530Z,3.40
2023-05-09T21:37:37.402Z,3.20
2023-05-09T21:40:05.913Z,3.20
2023-05-09T21:42:32.837Z,3.33
2023-05-09T21:45:00.066Z,3.22
2023-05-09T21:47:27.231Z,3.15
2023-05-09T21:49:54.601Z,3.20
2023-05-09T21:52:23.480Z,3.00
2023-05-09T21:54:50.440Z,3.30
2023-05-09T21:57:17.249Z,3.20
2023-05-09T21:59:44.306Z,3.28
2023-05-09T22:02:11.203Z,3.40
2023-05-09T22:04:40.076Z,3.80
2023-05-09T22:07:07.000Z,3.08
2023-05-09T22:09:33.917Z,3.38
2023-05-09T22:12:00.782Z,3.50
2023-05-09T22:14:27.573Z,3.55
2023-05-09T22:16:54.487Z,3.53
2023-05-09T22:19:21.328Z,3.40
2023-05-09T22:21:48.935Z,3.97
2023-05-09T22:24:15.989Z,3.50
2023-05-09T22:26:42.874Z,3.22
2023-05-09T22:29:09.788Z,3.08
2023-05-09T22:31:39.626Z,3.03
2023-05-09T22:34:06.409Z,3.70
2023-05-09T22:36:33.656Z,3.42
2023-05-09T22:39:00.579Z,3.47
2023-05-09T22:41:27.518Z,3.70
2023-05-09T22:43:54.278Z,3.80
2023-05-09T22:46:21.147Z,3.70
2023-05-09T22:48:47.933Z,3.67
2023-05-09T22:51:15.034Z,3.72
2023-05-09T22:53:41.898Z,3.97
2023-05-09T22:56:09.381Z,4.00
2023-05-09T22:58:36.528Z,3.90
2023-05-09T23:01:03.555Z,4.07
2023-05-09T23:03:30.556Z,3.97
2023-05-09T23:05:57.521Z,4.40
2023-05-09T23:08:24.257Z,3.80
2023-05-09T23:10:51.512Z,3.95
2023-05-09T23:13:18.476Z,3.90
2023-05-09T23:15:48.039Z,3.97
2023-05-09T23:18:14.975Z,4.28
2023-05-09T23:20:41.776Z,4.05
2023-05-09T23:23:08.659Z,4.45
2023-05-09T23:25:35.529Z,4.18
2023-05-09T23:28:02.771Z,3.85
2023-05-09T23:30:29.760Z,4.67
2023-05-09T23:32:57.006Z,4.20
2023-05-09T23:35:26.223Z,4.82
2023-05-09T23:37:53.619Z,4.40
2023-05-09T23:40:20.693Z,4.30
2023-05-09T23:42:47.479Z,4.68
2023-05-09T23:45:14.313Z,4.18
2023-05-09T23:47:41.135Z,4.43
2023-05-09T23:50:08.573Z,4.80
2023-05-09T23:52:35.896Z,4.40
2023-05-09T23:55:03.199Z,4.10
2023-05-09T23:57:29.916Z,4.70
2023-05-09T23:59:56.762Z,4.30
